Emmet, Arkansas
Current Conditions -  °F | °C
As of 11:56 AM on Monday 24 Nov 2014 (Local Time) from KADF Reporting Station
Clear Clear  
Wind Chill: 57°   Ceiling: Unl
Heat Index: 57°   Visibility: 10mi
Dew Point: 35°   Wind: 10mph
Humidity: 44%   Direction: 260°W
Pressure: 29.97"   Gusts: NA
Location:  33.73°N, 93.47°W
Report Text: KADF 241756Z AUTO 26009KT 10SM CLR 14/02 A2997 RMK AO2 50006 T01380016 10138 20038 SLP162
Loading
Personal Weather Stations






























Interactive Weather Map New forecast layout! Learn more

10-Day Weather Forecast

Advertisements
Track Severe Weather on mobile